sensor_id;sensor_type;location;lat;lon;timestamp;temperature;humidity
80274;DHT22;69576;51.902;-8.462;2023-05-07T00:00:33;16.10;71.40
80274;DHT22;69576;51.902;-8.462;2023-05-07T00:03:01;16.00;71.30
80274;DHT22;69576;51.902;-8.462;2023-05-07T00:05:27;16.00;71.40
80274;DHT22;69576;51.902;-8.462;2023-05-07T00:07:52;16.00;71.40
80274;DHT22;69576;51.902;-8.462;2023-05-07T00:10:21;16.00;71.30
80274;DHT22;69576;51.902;-8.462;2023-05-07T00:12:49;16.00;71.30
80274;DHT22;69576;51.902;-8.462;2023-05-07T00:15:15;16.00;71.50
80274;DHT22;69576;51.902;-8.462;2023-05-07T00:17:40;16.00;71.50
80274;DHT22;69576;51.902;-8.462;2023-05-07T00:20:07;16.00;71.60
80274;DHT22;69576;51.902;-8.462;2023-05-07T00:22:35;16.00;71.50
80274;DHT22;69576;51.902;-8.462;2023-05-07T00:25:01;16.00;71.60
80274;DHT22;69576;51.902;-8.462;2023-05-07T00:27:26;16.00;71.50
80274;DHT22;69576;51.902;-8.462;2023-05-07T00:29:52;16.00;71.40
80274;DHT22;69576;51.902;-8.462;2023-05-07T00:32:18;15.90;71.40
80274;DHT22;69576;51.902;-8.462;2023-05-07T00:34:46;15.90;71.40
80274;DHT22;69576;51.902;-8.462;2023-05-07T00:37:12;15.90;71.30
80274;DHT22;69576;51.902;-8.462;2023-05-07T00:39:38;15.90;71.50
80274;DHT22;69576;51.902;-8.462;2023-05-07T00:42:04;15.80;71.70
80274;DHT22;69576;51.902;-8.462;2023-05-07T00:44:32;15.80;71.80
80274;DHT22;69576;51.902;-8.462;2023-05-07T00:47:02;15.90;71.80
80274;DHT22;69576;51.902;-8.462;2023-05-07T00:49:48;15.80;71.80
80274;DHT22;69576;51.902;-8.462;2023-05-07T00:52:17;15.80;72.00
80274;DHT22;69576;51.902;-8.462;2023-05-07T00:54:47;15.80;72.30
80274;DHT22;69576;51.902;-8.462;2023-05-07T00:57:18;15.80;72.30
80274;DHT22;69576;51.902;-8.462;2023-05-07T00:59:46;15.80;72.00
80274;DHT22;69576;51.902;-8.462;2023-05-07T01:02:12;15.80;71.70
80274;DHT22;69576;51.902;-8.462;2023-05-07T01:04:38;15.80;71.90
80274;DHT22;69576;51.902;-8.462;2023-05-07T01:07:05;15.80;71.90
80274;DHT22;69576;51.902;-8.462;2023-05-07T01:09:34;15.80;72.00
80274;DHT22;69576;51.902;-8.462;2023-05-07T01:12:00;15.80;71.80
80274;DHT22;69576;51.902;-8.462;2023-05-07T01:14:28;15.80;71.60
80274;DHT22;69576;51.902;-8.462;2023-05-07T01:16:58;15.80;71.70
80274;DHT22;69576;51.902;-8.462;2023-05-07T01:19:24;15.80;71.70
80274;DHT22;69576;51.902;-8.462;2023-05-07T01:21:51;15.70;71.60
80274;DHT22;69576;51.902;-8.462;2023-05-07T01:24:22;15.70;71.60
80274;DHT22;69576;51.902;-8.462;2023-05-07T01:26:48;15.70;71.70
80274;DHT22;69576;51.902;-8.462;2023-05-07T01:29:14;15.70;71.70
80274;DHT22;69576;51.902;-8.462;2023-05-07T01:31:43;15.60;71.80
80274;DHT22;69576;51.902;-8.462;2023-05-07T01:34:13;15.60;71.60
80274;DHT22;69576;51.902;-8.462;2023-05-07T01:36:42;15.60;71.60
80274;DHT22;69576;51.902;-8.462;2023-05-07T01:39:11;15.60;71.80
80274;DHT22;69576;51.902;-8.462;2023-05-07T01:41:39;15.60;71.80
80274;DHT22;69576;51.902;-8.462;2023-05-07T01:44:08;15.60;71.80
80274;DHT22;69576;51.902;-8.462;2023-05-07T01:46:35;15.60;72.00
80274;DHT22;69576;51.902;-8.462;2023-05-07T01:49:06;15.60;71.90
80274;DHT22;69576;51.902;-8.462;2023-05-07T01:51:31;15.60;72.10
80274;DHT22;69576;51.902;-8.462;2023-05-07T01:53:58;15.60;72.10
80274;DHT22;69576;51.902;-8.462;2023-05-07T01:56:24;15.60;72.30
80274;DHT22;69576;51.902;-8.462;2023-05-07T01:58:53;15.60;72.40
80274;DHT22;69576;51.902;-8.462;2023-05-07T02:01:18;15.60;72.70
80274;DHT22;69576;51.902;-8.462;2023-05-07T02:03:44;15.60;72.30
80274;DHT22;69576;51.902;-8.462;2023-05-07T02:06:10;15.60;72.20
80274;DHT22;69576;51.902;-8.462;2023-05-07T02:08:36;15.60;71.80
80274;DHT22;69576;51.902;-8.462;2023-05-07T02:11:04;15.60;72.20
80274;DHT22;69576;51.902;-8.462;2023-05-07T02:13:32;15.60;72.50
80274;DHT22;69576;51.902;-8.462;2023-05-07T02:15:58;15.60;72.30
80274;DHT22;69576;51.902;-8.462;2023-05-07T02:18:24;15.60;72.00
80274;DHT22;69576;51.902;-8.462;2023-05-07T02:20:54;15.60;72.50
80274;DHT22;69576;51.902;-8.462;2023-05-07T02:23:22;15.60;72.30
80274;DHT22;69576;51.902;-8.462;2023-05-07T02:25:51;15.60;72.20
80274;DHT22;69576;51.902;-8.462;2023-05-07T02:28:16;15.60;72.00
80274;DHT22;69576;51.902;-8.462;2023-05-07T02:30:42;15.60;72.10
80274;DHT22;69576;51.902;-8.462;2023-05-07T02:33:08;15.60;72.10
80274;DHT22;69576;51.902;-8.462;2023-05-07T02:35:37;15.50;72.10
80274;DHT22;69576;51.902;-8.462;2023-05-07T02:38:05;15.60;72.00
80274;DHT22;69576;51.902;-8.462;2023-05-07T02:40:31;15.60;71.90
80274;DHT22;69576;51.902;-8.462;2023-05-07T02:43:01;15.50;72.00
80274;DHT22;69576;51.902;-8.462;2023-05-07T02:45:27;15.60;71.90
80274;DHT22;69576;51.902;-8.462;2023-05-07T02:47:53;15.60;71.90
80274;DHT22;69576;51.902;-8.462;2023-05-07T02:50:19;15.60;72.00
80274;DHT22;69576;51.902;-8.462;2023-05-07T02:52:44;15.60;71.80
80274;DHT22;69576;51.902;-8.462;2023-05-07T02:55:10;15.60;71.80
80274;DHT22;69576;51.902;-8.462;2023-05-07T02:57:36;15.60;71.80
80274;DHT22;69576;51.902;-8.462;2023-05-07T03:00:11;15.60;71.80
80274;DHT22;69576;51.902;-8.462;2023-05-07T03:02:39;15.60;71.80
80274;DHT22;69576;51.902;-8.462;2023-05-07T03:05:06;15.60;71.80
80274;DHT22;69576;51.902;-8.462;2023-05-07T03:07:32;15.60;71.60
80274;DHT22;69576;51.902;-8.462;2023-05-07T03:09:58;15.60;71.70
80274;DHT22;69576;51.902;-8.462;2023-05-07T03:12:25;15.60;71.80
80274;DHT22;69576;51.902;-8.462;2023-05-07T03:14:51;15.60;71.70
80274;DHT22;69576;51.902;-8.462;2023-05-07T03:17:22;15.60;71.60
80274;DHT22;69576;51.902;-8.462;2023-05-07T03:19:48;15.60;71.80
80274;DHT22;69576;51.902;-8.462;2023-05-07T03:22:16;15.60;71.70
80274;DHT22;69576;51.902;-8.462;2023-05-07T03:24:44;15.60;71.70
80274;DHT22;69576;51.902;-8.462;2023-05-07T03:27:12;15.60;71.70
80274;DHT22;69576;51.902;-8.462;2023-05-07T03:29:38;15.60;71.80
80274;DHT22;69576;51.902;-8.462;2023-05-07T03:32:04;15.60;71.70
80274;DHT22;69576;51.902;-8.462;2023-05-07T03:34:33;15.60;71.70
80274;DHT22;69576;51.902;-8.462;2023-05-07T03:36:59;15.60;71.70
80274;DHT22;69576;51.902;-8.462;2023-05-07T03:39:25;15.60;71.60
80274;DHT22;69576;51.902;-8.462;2023-05-07T03:41:51;15.60;71.70
80274;DHT22;69576;51.902;-8.462;2023-05-07T03:44:19;15.60;71.80
80274;DHT22;69576;51.902;-8.462;2023-05-07T03:46:45;15.60;71.80
80274;DHT22;69576;51.902;-8.462;2023-05-07T03:49:11;15.60;71.80
80274;DHT22;69576;51.902;-8.462;2023-05-07T03:51:36;15.60;71.80
80274;DHT22;69576;51.902;-8.462;2023-05-07T03:54:02;15.60;71.80
80274;DHT22;69576;51.902;-8.462;2023-05-07T03:56:28;15.60;71.60
80274;DHT22;69576;51.902;-8.462;2023-05-07T03:58:54;15.60;71.70
80274;DHT22;69576;51.902;-8.462;2023-05-07T04:01:24;15.60;71.60
80274;DHT22;69576;51.902;-8.462;2023-05-07T04:03:52;15.60;71.70
80274;DHT22;69576;51.902;-8.462;2023-05-07T04:06:20;15.60;71.70
80274;DHT22;69576;51.902;-8.462;2023-05-07T04:08:48;15.60;71.50
80274;DHT22;69576;51.902;-8.462;2023-05-07T04:11:18;15.60;71.80
80274;DHT22;69576;51.902;-8.462;2023-05-07T04:13:46;15.60;71.60
80274;DHT22;69576;51.902;-8.462;2023-05-07T04:16:14;15.60;71.50
80274;DHT22;69576;51.902;-8.462;2023-05-07T04:18:40;15.60;71.60
80274;DHT22;69576;51.902;-8.462;2023-05-07T04:21:14;15.60;71.50
80274;DHT22;69576;51.902;-8.462;2023-05-07T04:23:40;15.60;71.70
80274;DHT22;69576;51.902;-8.462;2023-05-07T04:26:08;15.60;71.60
80274;DHT22;69576;51.902;-8.462;2023-05-07T04:28:35;15.60;71.60
80274;DHT22;69576;51.902;-8.462;2023-05-07T04:31:01;15.60;71.60
80274;DHT22;69576;51.902;-8.462;2023-05-07T04:33:28;15.60;71.70
80274;DHT22;69576;51.902;-8.462;2023-05-07T04:35:54;15.60;71.60
80274;DHT22;69576;51.902;-8.462;2023-05-07T04:38:20;15.60;71.60
80274;DHT22;69576;51.902;-8.462;2023-05-07T04:40:46;15.60;71.60
80274;DHT22;69576;51.902;-8.462;2023-05-07T04:43:12;15.60;71.50
80274;DHT22;69576;51.902;-8.462;2023-05-07T04:45:38;15.60;71.60
80274;DHT22;69576;51.902;-8.462;2023-05-07T04:48:08;15.60;71.50
80274;DHT22;69576;51.902;-8.462;2023-05-07T04:50:34;15.60;71.50
80274;DHT22;69576;51.902;-8.462;2023-05-07T04:53:00;15.60;71.50
80274;DHT22;69576;51.902;-8.462;2023-05-07T04:55:26;15.60;71.70
80274;DHT22;69576;51.902;-8.462;2023-05-07T04:57:52;15.60;71.60
80274;DHT22;69576;51.902;-8.462;2023-05-07T05:00:18;15.60;71.70
80274;DHT22;69576;51.902;-8.462;2023-05-07T05:02:45;15.60;71.60
80274;DHT22;69576;51.902;-8.462;2023-05-07T05:05:11;15.60;71.70
80274;DHT22;69576;51.902;-8.462;2023-05-07T05:07:39;15.60;71.50
80274;DHT22;69576;51.902;-8.462;2023-05-07T05:10:05;15.60;71.70
80274;DHT22;69576;51.902;-8.462;2023-05-07T05:12:31;15.60;71.50
80274;DHT22;69576;51.902;-8.462;2023-05-07T05:14:59;15.60;71.70
80274;DHT22;69576;51.902;-8.462;2023-05-07T05:17:25;15.60;71.70
80274;DHT22;69576;51.902;-8.462;2023-05-07T05:19:53;15.60;71.60
80274;DHT22;69576;51.902;-8.462;2023-05-07T05:22:19;15.60;71.50
80274;DHT22;69576;51.902;-8.462;2023-05-07T05:24:44;15.60;71.60
80274;DHT22;69576;51.902;-8.462;2023-05-07T05:27:13;15.60;71.50
80274;DHT22;69576;51.902;-8.462;2023-05-07T05:29:38;15.60;71.60
80274;DHT22;69576;51.902;-8.462;2023-05-07T05:32:04;15.60;71.50
80274;DHT22;69576;51.902;-8.462;2023-05-07T05:34:30;15.60;71.70
80274;DHT22;69576;51.902;-8.462;2023-05-07T05:36:56;15.60;71.50
80274;DHT22;69576;51.902;-8.462;2023-05-07T05:39:22;15.60;71.50
80274;DHT22;69576;51.902;-8.462;2023-05-07T05:41:51;15.60;71.50
80274;DHT22;69576;51.902;-8.462;2023-05-07T05:44:16;15.60;71.50
80274;DHT22;69576;51.902;-8.462;2023-05-07T05:46:42;15.60;71.60
80274;DHT22;69576;51.902;-8.462;2023-05-07T05:49:08;15.60;71.60
80274;DHT22;69576;51.902;-8.462;2023-05-07T05:51:34;15.60;71.70
80274;DHT22;69576;51.902;-8.462;2023-05-07T05:54:00;15.60;71.60
80274;DHT22;69576;51.902;-8.462;2023-05-07T05:56:28;15.60;71.60
80274;DHT22;69576;51.902;-8.462;2023-05-07T05:58:56;15.70;71.70
80274;DHT22;69576;51.902;-8.462;2023-05-07T06:01:22;15.60;71.60
80274;DHT22;69576;51.902;-8.462;2023-05-07T06:03:48;15.60;71.60
80274;DHT22;69576;51.902;-8.462;2023-05-07T06:06:16;15.60;71.60
80274;DHT22;69576;51.902;-8.462;2023-05-07T06:08:42;15.60;71.60
80274;DHT22;69576;51.902;-8.462;2023-05-07T06:11:08;15.60;71.40
80274;DHT22;69576;51.902;-8.462;2023-05-07T06:13:34;15.60;71.50
80274;DHT22;69576;51.902;-8.462;2023-05-07T06:16:03;15.60;71.40
80274;DHT22;69576;51.902;-8.462;2023-05-07T06:18:31;15.60;71.50
80274;DHT22;69576;51.902;-8.462;2023-05-07T06:20:56;15.70;71.50
80274;DHT22;69576;51.902;-8.462;2023-05-07T06:23:29;15.70;71.50
80274;DHT22;69576;51.902;-8.462;2023-05-07T06:25:57;15.70;71.40
80274;DHT22;69576;51.902;-8.462;2023-05-07T06:28:27;15.70;71.60
80274;DHT22;69576;51.902;-8.462;2023-05-07T06:31:06;15.70;71.70
80274;DHT22;69576;51.902;-8.462;2023-05-07T06:33:35;15.70;71.80
80274;DHT22;69576;51.902;-8.462;2023-05-07T06:36:01;15.80;72.00
80274;DHT22;69576;51.902;-8.462;2023-05-07T06:38:29;15.80;71.70
80274;DHT22;69576;51.902;-8.462;2023-05-07T06:40:57;15.80;71.60
80274;DHT22;69576;51.902;-8.462;2023-05-07T06:43:23;15.80;71.50
80274;DHT22;69576;51.902;-8.462;2023-05-07T06:45:53;15.80;71.50
80274;DHT22;69576;51.902;-8.462;2023-05-07T06:48:19;15.80;71.60
80274;DHT22;69576;51.902;-8.462;2023-05-07T06:50:45;15.80;71.60
80274;DHT22;69576;51.902;-8.462;2023-05-07T06:53:11;15.80;71.50
80274;DHT22;69576;51.902;-8.462;2023-05-07T06:55:37;15.80;71.40
80274;DHT22;69576;51.902;-8.462;2023-05-07T06:58:09;15.80;71.50
80274;DHT22;69576;51.902;-8.462;2023-05-07T07:00:35;15.80;71.40
80274;DHT22;69576;51.902;-8.462;2023-05-07T07:03:01;15.80;71.30
80274;DHT22;69576;51.902;-8.462;2023-05-07T07:05:29;15.80;71.40
80274;DHT22;69576;51.902;-8.462;2023-05-07T07:07:57;15.80;71.40
80274;DHT22;69576;51.902;-8.462;2023-05-07T07:10:22;15.80;71.20
80274;DHT22;69576;51.902;-8.462;2023-05-07T07:12:51;15.80;71.30
80274;DHT22;69576;51.902;-8.462;2023-05-07T07:15:20;15.80;71.40
80274;DHT22;69576;51.902;-8.462;2023-05-07T07:17:46;15.80;71.30
80274;DHT22;69576;51.902;-8.462;2023-05-07T07:20:13;15.80;71.40
80274;DHT22;69576;51.902;-8.462;2023-05-07T07:22:41;15.80;71.20
80274;DHT22;69576;51.902;-8.462;2023-05-07T07:25:07;15.80;71.20
80274;DHT22;69576;51.902;-8.462;2023-05-07T07:27:35;15.90;71.20
80274;DHT22;69576;51.902;-8.462;2023-05-07T07:30:01;15.90;71.20
80274;DHT22;69576;51.902;-8.462;2023-05-07T07:32:27;15.90;71.30
80274;DHT22;69576;51.902;-8.462;2023-05-07T07:34:55;15.90;70.90
80274;DHT22;69576;51.902;-8.462;2023-05-07T07:37:21;15.90;71.40
80274;DHT22;69576;51.902;-8.462;2023-05-07T07:39:46;15.90;71.40
80274;DHT22;69576;51.902;-8.462;2023-05-07T07:42:12;15.90;71.40
80274;DHT22;69576;51.902;-8.462;2023-05-07T07:44:40;15.90;71.30
80274;DHT22;69576;51.902;-8.462;2023-05-07T07:47:06;16.00;71.40
80274;DHT22;69576;51.902;-8.462;2023-05-07T07:49:31;16.00;71.40
80274;DHT22;69576;51.902;-8.462;2023-05-07T07:52:00;16.00;71.60
80274;DHT22;69576;51.902;-8.462;2023-05-07T07:54:26;16.00;71.70
80274;DHT22;69576;51.902;-8.462;2023-05-07T07:56:52;16.10;71.30
80274;DHT22;69576;51.902;-8.462;2023-05-07T07:59:17;16.10;71.40
80274;DHT22;69576;51.902;-8.462;2023-05-07T08:01:44;16.10;71.20
80274;DHT22;69576;51.902;-8.462;2023-05-07T08:04:13;16.10;71.80
80274;DHT22;69576;51.902;-8.462;2023-05-07T08:06:41;16.10;71.90
80274;DHT22;69576;51.902;-8.462;2023-05-07T08:09:09;16.20;71.40
80274;DHT22;69576;51.902;-8.462;2023-05-07T08:11:35;16.20;71.10
80274;DHT22;69576;51.902;-8.462;2023-05-07T08:14:04;16.20;71.10
80274;DHT22;69576;51.902;-8.462;2023-05-07T08:16:32;16.20;71.20
80274;DHT22;69576;51.902;-8.462;2023-05-07T08:19:03;16.20;71.00
80274;DHT22;69576;51.902;-8.462;2023-05-07T08:21:28;16.20;70.90
80274;DHT22;69576;51.902;-8.462;2023-05-07T08:23:56;16.20;70.50
80274;DHT22;69576;51.902;-8.462;2023-05-07T08:26:22;16.20;70.90
80274;DHT22;69576;51.902;-8.462;2023-05-07T08:28:50;16.20;70.90
80274;DHT22;69576;51.902;-8.462;2023-05-07T08:31:15;16.20;70.90
80274;DHT22;69576;51.902;-8.462;2023-05-07T08:33:44;16.20;70.70
80274;DHT22;69576;51.902;-8.462;2023-05-07T08:36:10;16.20;70.50
80274;DHT22;69576;51.902;-8.462;2023-05-07T08:38:38;16.20;70.30
80274;DHT22;69576;51.902;-8.462;2023-05-07T08:41:06;16.20;70.10
80274;DHT22;69576;51.902;-8.462;2023-05-07T08:43:38;16.30;69.80
80274;DHT22;69576;51.902;-8.462;2023-05-07T08:46:09;16.30;70.00
80274;DHT22;69576;51.902;-8.462;2023-05-07T08:48:37;16.30;69.80
80274;DHT22;69576;51.902;-8.462;2023-05-07T08:51:05;16.30;69.50
80274;DHT22;69576;51.902;-8.462;2023-05-07T08:53:31;16.30;69.70
80274;DHT22;69576;51.902;-8.462;2023-05-07T08:55:58;16.30;69.60
80274;DHT22;69576;51.902;-8.462;2023-05-07T08:58:27;16.30;69.80
80274;DHT22;69576;51.902;-8.462;2023-05-07T09:00:58;16.30;69.40
80274;DHT22;69576;51.902;-8.462;2023-05-07T09:03:24;16.30;69.50
80274;DHT22;69576;51.902;-8.462;2023-05-07T09:05:52;16.30;69.20
80274;DHT22;69576;51.902;-8.462;2023-05-07T09:08:26;16.30;69.10
80274;DHT22;69576;51.902;-8.462;2023-05-07T09:10:53;16.30;69.00
80274;DHT22;69576;51.902;-8.462;2023-05-07T09:13:19;16.30;69.10
80274;DHT22;69576;51.902;-8.462;2023-05-07T09:15:45;16.30;69.20
80274;DHT22;69576;51.902;-8.462;2023-05-07T09:18:13;16.40;69.00
80274;DHT22;69576;51.902;-8.462;2023-05-07T09:20:40;16.40;69.00
80274;DHT22;69576;51.902;-8.462;2023-05-07T09:23:07;16.40;68.90
80274;DHT22;69576;51.902;-8.462;2023-05-07T09:25:36;16.50;68.70
80274;DHT22;69576;51.902;-8.462;2023-05-07T09:28:03;16.50;68.60
80274;DHT22;69576;51.902;-8.462;2023-05-07T09:30:31;16.50;68.70
80274;DHT22;69576;51.902;-8.462;2023-05-07T09:32:59;16.50;68.50
80274;DHT22;69576;51.902;-8.462;2023-05-07T09:35:29;16.50;68.50
80274;DHT22;69576;51.902;-8.462;2023-05-07T09:37:57;16.50;68.50
80274;DHT22;69576;51.902;-8.462;2023-05-07T09:40:28;16.50;68.60
80274;DHT22;69576;51.902;-8.462;2023-05-07T09:42:55;16.50;68.40
80274;DHT22;69576;51.902;-8.462;2023-05-07T09:45:28;16.50;68.50
80274;DHT22;69576;51.902;-8.462;2023-05-07T09:47:57;16.50;68.50
80274;DHT22;69576;51.902;-8.462;2023-05-07T09:50:27;16.60;68.50
80274;DHT22;69576;51.902;-8.462;2023-05-07T09:52:59;16.60;68.40
80274;DHT22;69576;51.902;-8.462;2023-05-07T09:55:25;16.60;69.00
80274;DHT22;69576;51.902;-8.462;2023-05-07T09:57:53;16.60;68.60
80274;DHT22;69576;51.902;-8.462;2023-05-07T10:00:20;16.60;68.50
80274;DHT22;69576;51.902;-8.462;2023-05-07T10:02:50;16.60;68.50
80274;DHT22;69576;51.902;-8.462;2023-05-07T10:05:23;16.60;68.50
80274;DHT22;69576;51.902;-8.462;2023-05-07T10:07:52;16.70;68.40
80274;DHT22;69576;51.902;-8.462;2023-05-07T10:10:18;16.70;68.40
80274;DHT22;69576;51.902;-8.462;2023-05-07T10:12:49;16.70;68.20
80274;DHT22;69576;51.902;-8.462;2023-05-07T10:15:16;16.60;67.90
80274;DHT22;69576;51.902;-8.462;2023-05-07T10:17:42;16.60;67.70
80274;DHT22;69576;51.902;-8.462;2023-05-07T10:20:08;16.60;67.70
80274;DHT22;69576;51.902;-8.462;2023-05-07T10:22:41;16.60;67.50
80274;DHT22;69576;51.902;-8.462;2023-05-07T10:25:29;16.60;67.30
80274;DHT22;69576;51.902;-8.462;2023-05-07T10:27:58;16.60;67.30
80274;DHT22;69576;51.902;-8.462;2023-05-07T10:33:13;16.60;67.60
80274;DHT22;69576;51.902;-8.462;2023-05-07T10:35:45;16.60;67.50
80274;DHT22;69576;51.902;-8.462;2023-05-07T10:38:17;16.60;67.50
80274;DHT22;69576;51.902;-8.462;2023-05-07T10:40:45;16.60;67.50
80274;DHT22;69576;51.902;-8.462;2023-05-07T10:43:13;16.60;67.50
80274;DHT22;69576;51.902;-8.462;2023-05-07T10:45:39;16.60;67.50
80274;DHT22;69576;51.902;-8.462;2023-05-07T10:48:16;16.60;67.50
80274;DHT22;69576;51.902;-8.462;2023-05-07T10:50:44;16.60;67.50
80274;DHT22;69576;51.902;-8.462;2023-05-07T10:55:47;16.70;67.60
80274;DHT22;69576;51.902;-8.462;2023-05-07T10:58:26;16.70;67.70
80274;DHT22;69576;51.902;-8.462;2023-05-07T11:00:56;16.70;67.50
80274;DHT22;69576;51.902;-8.462;2023-05-07T11:03:22;16.70;67.40
80274;DHT22;69576;51.902;-8.462;2023-05-07T11:08:56;16.70;67.10
80274;DHT22;69576;51.902;-8.462;2023-05-07T11:11:47;16.70;66.90
80274;DHT22;69576;51.902;-8.462;2023-05-07T11:17:15;16.70;67.10
80274;DHT22;69576;51.902;-8.462;2023-05-07T11:19:58;16.70;67.10
80274;DHT22;69576;51.902;-8.462;2023-05-07T11:25:05;16.70;67.40
80274;DHT22;69576;51.902;-8.462;2023-05-07T11:27:31;16.80;67.40
80274;DHT22;69576;51.902;-8.462;2023-05-07T11:30:00;16.80;67.40
80274;DHT22;69576;51.902;-8.462;2023-05-07T11:32:31;16.80;67.50
80274;DHT22;69576;51.902;-8.462;2023-05-07T11:34:58;16.90;67.50
80274;DHT22;69576;51.902;-8.462;2023-05-07T11:37:26;16.90;67.60
80274;DHT22;69576;51.902;-8.462;2023-05-07T11:40:08;16.90;67.70
80274;DHT22;69576;51.902;-8.462;2023-05-07T11:42:39;16.90;67.50
80274;DHT22;69576;51.902;-8.462;2023-05-07T11:45:09;16.90;67.60
80274;DHT22;69576;51.902;-8.462;2023-05-07T11:47:35;16.90;67.40
80274;DHT22;69576;51.902;-8.462;2023-05-07T11:50:07;16.90;67.30
80274;DHT22;69576;51.902;-8.462;2023-05-07T11:52:36;16.90;67.30
80274;DHT22;69576;51.902;-8.462;2023-05-07T11:55:04;16.90;67.20
80274;DHT22;69576;51.902;-8.462;2023-05-07T11:57:30;16.90;67.20
80274;DHT22;69576;51.902;-8.462;2023-05-07T11:59:58;16.90;67.10
80274;DHT22;69576;51.902;-8.462;2023-05-07T12:02:28;16.90;67.20
80274;DHT22;69576;51.902;-8.462;2023-05-07T12:04:54;16.90;67.30
80274;DHT22;69576;51.902;-8.462;2023-05-07T12:07:24;16.90;67.30
80274;DHT22;69576;51.902;-8.462;2023-05-07T12:09:50;16.90;67.30
80274;DHT22;69576;51.902;-8.462;2023-05-07T12:12:18;16.90;67.50
80274;DHT22;69576;51.902;-8.462;2023-05-07T12:14:45;16.90;67.30
80274;DHT22;69576;51.902;-8.462;2023-05-07T12:17:14;16.90;67.50
80274;DHT22;69576;51.902;-8.462;2023-05-07T12:19:44;16.90;67.50
80274;DHT22;69576;51.902;-8.462;2023-05-07T12:22:13;16.90;67.40
80274;DHT22;69576;51.902;-8.462;2023-05-07T12:24:47;16.90;67.50
80274;DHT22;69576;51.902;-8.462;2023-05-07T12:27:16;16.90;67.50
80274;DHT22;69576;51.902;-8.462;2023-05-07T12:29:49;16.90;67.50
80274;DHT22;69576;51.902;-8.462;2023-05-07T12:32:20;16.90;67.60
80274;DHT22;69576;51.902;-8.462;2023-05-07T12:34:49;16.90;67.70
80274;DHT22;69576;51.902;-8.462;2023-05-07T12:37:25;17.00;67.60
80274;DHT22;69576;51.902;-8.462;2023-05-07T12:40:08;17.00;67.90
80274;DHT22;69576;51.902;-8.462;2023-05-07T12:42:39;17.00;67.60
80274;DHT22;69576;51.902;-8.462;2023-05-07T12:45:13;16.90;67.40
80274;DHT22;69576;51.902;-8.462;2023-05-07T12:47:45;17.00;67.60
80274;DHT22;69576;51.902;-8.462;2023-05-07T12:50:12;17.00;67.60
80274;DHT22;69576;51.902;-8.462;2023-05-07T12:52:38;16.90;67.60
80274;DHT22;69576;51.902;-8.462;2023-05-07T12:55:05;16.90;68.00
80274;DHT22;69576;51.902;-8.462;2023-05-07T12:57:43;17.00;67.80
80274;DHT22;69576;51.902;-8.462;2023-05-07T13:00:09;17.00;67.60
80274;DHT22;69576;51.902;-8.462;2023-05-07T13:02:40;17.00;67.50
80274;DHT22;69576;51.902;-8.462;2023-05-07T13:05:06;17.00;67.60
80274;DHT22;69576;51.902;-8.462;2023-05-07T13:07:32;17.00;67.60
80274;DHT22;69576;51.902;-8.462;2023-05-07T13:09:58;17.00;67.50
80274;DHT22;69576;51.902;-8.462;2023-05-07T13:12:26;17.00;67.60
80274;DHT22;69576;51.902;-8.462;2023-05-07T13:14:55;17.00;67.60
80274;DHT22;69576;51.902;-8.462;2023-05-07T13:17:23;17.10;67.30
80274;DHT22;69576;51.902;-8.462;2023-05-07T13:19:50;17.10;67.30
80274;DHT22;69576;51.902;-8.462;2023-05-07T13:22:18;17.10;67.40
80274;DHT22;69576;51.902;-8.462;2023-05-07T13:24:47;17.10;67.40
80274;DHT22;69576;51.902;-8.462;2023-05-07T13:27:12;17.20;67.40
80274;DHT22;69576;51.902;-8.462;2023-05-07T13:29:43;17.20;67.40
80274;DHT22;69576;51.902;-8.462;2023-05-07T13:32:13;17.20;67.30
80274;DHT22;69576;51.902;-8.462;2023-05-07T13:34:39;17.20;67.20
80274;DHT22;69576;51.902;-8.462;2023-05-07T13:37:05;17.20;67.40
80274;DHT22;69576;51.902;-8.462;2023-05-07T13:39:33;17.20;67.20
80274;DHT22;69576;51.902;-8.462;2023-05-07T13:41:59;17.20;67.20
80274;DHT22;69576;51.902;-8.462;2023-05-07T13:44:26;17.20;67.10
80274;DHT22;69576;51.902;-8.462;2023-05-07T13:46:52;17.20;67.20
80274;DHT22;69576;51.902;-8.462;2023-05-07T13:49:17;17.20;67.20
80274;DHT22;69576;51.902;-8.462;2023-05-07T13:51:43;17.20;67.10
80274;DHT22;69576;51.902;-8.462;2023-05-07T13:54:11;17.20;67.20
80274;DHT22;69576;51.902;-8.462;2023-05-07T13:56:37;17.20;67.40
80274;DHT22;69576;51.902;-8.462;2023-05-07T13:59:05;17.20;67.40
80274;DHT22;69576;51.902;-8.462;2023-05-07T14:01:33;17.20;67.30
80274;DHT22;69576;51.902;-8.462;2023-05-07T14:04:01;17.20;67.30
80274;DHT22;69576;51.902;-8.462;2023-05-07T14:06:29;17.20;67.30
80274;DHT22;69576;51.902;-8.462;2023-05-07T14:08:55;17.20;67.30
80274;DHT22;69576;51.902;-8.462;2023-05-07T14:11:27;17.20;67.30
80274;DHT22;69576;51.902;-8.462;2023-05-07T14:13:53;17.10;67.50
80274;DHT22;69576;51.902;-8.462;2023-05-07T14:16:19;17.10;67.50
80274;DHT22;69576;51.902;-8.462;2023-05-07T14:18:45;17.10;67.50
80274;DHT22;69576;51.902;-8.462;2023-05-07T14:21:10;17.10;67.80
80274;DHT22;69576;51.902;-8.462;2023-05-07T14:23:39;17.10;67.50
80274;DHT22;69576;51.902;-8.462;2023-05-07T14:26:04;17.10;67.70
80274;DHT22;69576;51.902;-8.462;2023-05-07T14:28:34;17.10;67.50
80274;DHT22;69576;51.902;-8.462;2023-05-07T14:31:01;17.10;67.60
80274;DHT22;69576;51.902;-8.462;2023-05-07T14:33:26;17.00;67.50
80274;DHT22;69576;51.902;-8.462;2023-05-07T14:35:52;17.00;67.60
80274;DHT22;69576;51.902;-8.462;2023-05-07T14:38:18;17.00;67.90
80274;DHT22;69576;51.902;-8.462;2023-05-07T14:40:46;17.00;67.70
80274;DHT22;69576;51.902;-8.462;2023-05-07T14:43:12;17.00;68.10
80274;DHT22;69576;51.902;-8.462;2023-05-07T14:45:37;17.00;68.30
80274;DHT22;69576;51.902;-8.462;2023-05-07T14:48:04;17.00;68.50
80274;DHT22;69576;51.902;-8.462;2023-05-07T14:50:32;17.00;68.20
80274;DHT22;69576;51.902;-8.462;2023-05-07T14:52:58;17.00;68.40
80274;DHT22;69576;51.902;-8.462;2023-05-07T14:55:28;17.00;68.20
80274;DHT22;69576;51.902;-8.462;2023-05-07T14:57:55;17.00;68.50
80274;DHT22;69576;51.902;-8.462;2023-05-07T15:00:23;17.00;68.60
80274;DHT22;69576;51.902;-8.462;2023-05-07T15:02:49;17.00;68.70
80274;DHT22;69576;51.902;-8.462;2023-05-07T15:05:18;17.00;68.70
80274;DHT22;69576;51.902;-8.462;2023-05-07T15:07:47;17.00;68.80
80274;DHT22;69576;51.902;-8.462;2023-05-07T15:10:12;17.00;69.30
80274;DHT22;69576;51.902;-8.462;2023-05-07T15:12:38;17.00;69.30
80274;DHT22;69576;51.902;-8.462;2023-05-07T15:15:09;16.90;69.00
80274;DHT22;69576;51.902;-8.462;2023-05-07T15:17:35;16.90;69.10
80274;DHT22;69576;51.902;-8.462;2023-05-07T15:20:01;16.90;69.00
80274;DHT22;69576;51.902;-8.462;2023-05-07T15:22:32;16.90;69.10
80274;DHT22;69576;51.902;-8.462;2023-05-07T15:25:00;16.90;69.20
80274;DHT22;69576;51.902;-8.462;2023-05-07T15:27:26;16.80;69.20
80274;DHT22;69576;51.902;-8.462;2023-05-07T15:29:54;16.80;69.30
80274;DHT22;69576;51.902;-8.462;2023-05-07T15:32:20;16.80;69.30